createdAt,value
2018-08-09T00:00:54.250Z,18.20
2018-08-09T00:05:51.759Z,18.65
2018-08-09T00:10:49.269Z,18.73
2018-08-09T00:15:46.790Z,18.40
2018-08-09T00:20:44.278Z,18.40
2018-08-09T00:25:41.761Z,18.24
2018-08-09T00:30:39.313Z,18.20
2018-08-09T00:35:36.798Z,18.80
2018-08-09T00:40:34.283Z,18.91
2018-08-09T00:45:31.950Z,18.36
2018-08-09T00:50:29.488Z,18.24
2018-08-09T00:55:26.995Z,18.18
2018-08-09T01:00:24.502Z,17.98
2018-08-09T01:05:22.005Z,17.82
2018-08-09T01:10:19.515Z,17.68
2018-08-09T01:15:17.003Z,18.13
2018-08-09T01:20:14.549Z,17.90
2018-08-09T01:25:12.049Z,17.51
2018-08-09T01:30:09.547Z,17.43
2018-08-09T01:35:07.086Z,17.50
2018-08-09T01:40:05.371Z,17.82
2018-08-09T01:45:02.845Z,17.21
2018-08-09T01:50:02.620Z,16.92
2018-08-09T01:55:01.163Z,16.80
2018-08-09T01:59:58.739Z,16.71
2018-08-09T02:04:56.309Z,17.10
2018-08-09T02:09:53.829Z,16.90
2018-08-09T02:14:51.318Z,16.60
2018-08-09T02:19:48.781Z,16.56
2018-08-09T02:24:47.166Z,17.40
2018-08-09T02:29:44.638Z,17.02
2018-08-09T02:34:42.200Z,16.72
2018-08-09T02:39:39.686Z,16.63
2018-08-09T02:44:37.234Z,16.88
2018-08-09T02:49:34.733Z,17.01
2018-08-09T02:54:32.218Z,16.98
2018-08-09T02:59:29.728Z,16.64
2018-08-09T03:04:27.254Z,16.49
2018-08-09T03:09:24.745Z,16.58
2018-08-09T03:14:22.224Z,16.27
2018-08-09T03:19:19.698Z,16.34
2018-08-09T03:24:17.278Z,16.77
2018-08-09T03:29:14.763Z,16.38
2018-08-09T03:34:12.309Z,16.14
2018-08-09T03:39:11.115Z,16.19
2018-08-09T03:44:08.639Z,16.20
2018-08-09T03:49:06.492Z,16.12
2018-08-09T03:54:04.001Z,16.13
2018-08-09T03:59:01.680Z,16.14
2018-08-09T04:03:59.179Z,15.96
2018-08-09T04:08:56.679Z,16.06
2018-08-09T04:13:54.178Z,16.02
2018-08-09T04:18:51.748Z,15.99
2018-08-09T04:23:49.259Z,16.00
2018-08-09T04:28:46.777Z,16.58
2018-08-09T04:33:44.280Z,16.83
2018-08-09T04:38:42.158Z,16.98
2018-08-09T04:43:39.734Z,16.68
2018-08-09T04:48:37.332Z,16.75
2018-08-09T04:53:34.845Z,16.99
2018-08-09T04:58:32.407Z,17.12
2018-08-09T05:03:30.237Z,17.38
2018-08-09T05:08:27.741Z,17.64
2018-08-09T05:13:25.243Z,18.07
2018-08-09T05:18:22.750Z,18.32
2018-08-09T05:23:20.238Z,18.93
2018-08-09T05:28:17.738Z,19.11
2018-08-09T05:33:15.262Z,19.21
2018-08-09T05:38:12.738Z,19.50
2018-08-09T05:43:10.278Z,20.66
2018-08-09T05:48:07.780Z,21.54
2018-08-09T05:53:05.665Z,21.63
2018-08-09T05:58:03.210Z,21.68
2018-08-09T06:03:00.706Z,22.34
2018-08-09T06:07:58.214Z,22.77
2018-08-09T06:12:56.919Z,23.03
2018-08-09T06:17:54.391Z,22.95
2018-08-09T06:22:52.034Z,22.84
2018-08-09T06:27:49.521Z,22.83
2018-08-09T06:32:46.982Z,22.93
2018-08-09T06:37:44.511Z,23.08
2018-08-09T06:42:44.259Z,23.48
2018-08-09T06:47:41.802Z,23.63
2018-08-09T06:52:49.986Z,24.05
2018-08-09T06:57:52.269Z,23.79
2018-08-09T07:02:49.801Z,23.90
2018-08-09T07:07:47.335Z,23.82
2018-08-09T07:12:45.974Z,23.57
2018-08-09T07:17:43.546Z,23.47
2018-08-09T07:22:41.541Z,23.21
2018-08-09T07:27:39.067Z,22.82
2018-08-09T07:32:36.734Z,22.95
2018-08-09T07:37:34.252Z,22.88
2018-08-09T07:42:39.224Z,22.33
2018-08-09T07:47:36.799Z,22.01
2018-08-09T07:52:34.321Z,21.37
2018-08-09T07:57:31.830Z,21.28
2018-08-09T08:02:29.317Z,21.00
2018-08-09T08:07:26.842Z,20.84
2018-08-09T08:12:33.248Z,20.75
2018-08-09T08:17:30.742Z,20.73
2018-08-09T08:22:28.234Z,20.81
2018-08-09T08:27:25.762Z,21.18
2018-08-09T08:32:23.295Z,21.46
2018-08-09T08:37:20.849Z,21.48
2018-08-09T08:42:21.125Z,21.70
2018-08-09T08:47:18.818Z,21.68
2018-08-09T08:52:16.285Z,21.94
2018-08-09T08:57:13.790Z,22.04
2018-08-09T09:02:11.314Z,21.95
2018-08-09T09:07:08.860Z,21.95
2018-08-09T09:12:15.361Z,22.01
2018-08-09T09:17:12.993Z,21.75
2018-08-09T09:22:10.524Z,21.80
2018-08-09T09:27:09.330Z,22.01
2018-08-09T09:32:06.838Z,21.86
2018-08-09T09:37:04.659Z,21.76
2018-08-09T09:42:05.980Z,22.23
2018-08-09T09:47:03.611Z,22.69
2018-08-09T09:52:01.165Z,22.38
2018-08-09T09:56:58.677Z,22.90
2018-08-09T10:01:56.250Z,23.51
2018-08-09T10:06:53.737Z,25.24
2018-08-09T10:11:53.182Z,25.89
2018-08-09T10:16:50.653Z,26.17
2018-08-09T10:21:48.147Z,26.13
2018-08-09T10:26:45.662Z,26.22
2018-08-09T10:31:45.529Z,26.18
2018-08-09T10:36:43.063Z,27.72
2018-08-09T10:41:40.566Z,28.05
2018-08-09T10:46:38.053Z,27.43
2018-08-09T10:51:35.553Z,27.07
2018-08-09T10:56:33.069Z,26.97
2018-08-09T11:01:30.607Z,27.88
2018-08-09T11:06:28.097Z,28.66
2018-08-09T11:11:25.628Z,28.17
2018-08-09T11:16:23.125Z,28.35
2018-08-09T11:21:20.624Z,28.57
2018-08-09T11:26:18.127Z,28.98
2018-08-09T11:31:18.869Z,28.73
2018-08-09T11:36:16.453Z,28.86
2018-08-09T11:41:23.851Z,28.63
2018-08-09T11:46:22.574Z,28.66
2018-08-09T11:51:20.071Z,29.24
2018-08-09T11:56:17.674Z,29.97
2018-08-09T12:01:15.226Z,30.72
2018-08-09T12:06:12.717Z,31.53
2018-08-09T12:11:10.316Z,31.06
2018-08-09T12:16:07.870Z,31.07
2018-08-09T12:21:05.632Z,31.09
2018-08-09T12:26:03.150Z,31.23
2018-08-09T12:31:00.637Z,31.27
2018-08-09T12:35:58.158Z,31.53
2018-08-09T12:41:26.661Z,31.67
2018-08-09T12:46:24.238Z,31.80
2018-08-09T12:51:21.780Z,31.56
2018-08-09T12:56:19.330Z,31.65
2018-08-09T13:01:16.904Z,31.88
2018-08-09T13:06:14.392Z,31.92
2018-08-09T13:11:15.085Z,32.03
2018-08-09T13:16:12.655Z,32.10
2018-08-09T13:21:10.172Z,31.70
2018-08-09T13:26:07.800Z,31.49
2018-08-09T13:31:05.488Z,31.45
2018-08-09T13:36:03.134Z,31.44
2018-08-09T13:41:00.617Z,31.76
2018-08-09T13:45:58.129Z,31.79
2018-08-09T13:50:55.640Z,31.81
2018-08-09T13:55:53.146Z,31.87
2018-08-09T14:00:50.758Z,31.67
2018-08-09T14:05:48.238Z,31.63
2018-08-09T14:10:45.755Z,31.66
2018-08-09T14:15:43.340Z,31.65
2018-08-09T14:20:40.934Z,31.77
2018-08-09T14:25:38.457Z,31.68
2018-08-09T14:30:36.031Z,31.48
2018-08-09T14:35:33.586Z,31.21
2018-08-09T14:40:31.278Z,30.64
2018-08-09T14:45:28.850Z,30.31
2018-08-09T14:50:30.741Z,30.25
2018-08-09T14:55:32.540Z,25.29
2018-08-09T15:00:33.365Z,23.32
2018-08-09T15:05:33.895Z,22.52
2018-08-09T15:10:31.695Z,22.34
2018-08-09T15:15:29.310Z,22.08
2018-08-09T15:20:26.862Z,21.90
2018-08-09T15:25:24.386Z,21.82
2018-08-09T15:30:30.549Z,21.63
2018-08-09T15:35:28.080Z,21.44
2018-08-09T15:40:25.598Z,21.52
2018-08-09T15:45:27.799Z,21.59
2018-08-09T15:50:26.922Z,21.67
2018-08-09T15:55:26.175Z,21.57
2018-08-09T16:00:31.965Z,21.40
2018-08-09T16:05:33.076Z,21.30
2018-08-09T16:10:30.635Z,21.34
2018-08-09T16:15:28.142Z,21.45
2018-08-09T16:20:25.668Z,21.94
2018-08-09T16:25:23.198Z,22.16
2018-08-09T16:30:22.759Z,22.47
2018-08-09T16:35:20.275Z,22.59
2018-08-09T16:40:25.958Z,23.02
2018-08-09T16:45:24.349Z,23.57
2018-08-09T16:50:23.530Z,24.17
2018-08-09T16:55:22.146Z,24.18
2018-08-09T17:00:21.967Z,24.49
2018-08-09T17:05:20.723Z,24.85
2018-08-09T17:10:19.602Z,24.52
2018-08-09T17:15:21.749Z,23.78
2018-08-09T17:20:23.439Z,23.64
2018-08-09T17:25:21.028Z,23.45
2018-08-09T17:30:20.159Z,23.15
2018-08-09T17:35:18.344Z,23.10
2018-08-09T17:40:19.894Z,23.11
2018-08-09T17:45:18.383Z,23.17
2018-08-09T17:50:15.955Z,23.03
2018-08-09T17:55:14.766Z,23.03
2018-08-09T18:00:17.778Z,23.05
2018-08-09T18:05:15.348Z,23.15
2018-08-09T18:10:17.620Z,23.57
2018-08-09T18:15:15.626Z,23.79
2018-08-09T18:20:16.727Z,23.58
2018-08-09T18:25:15.082Z,23.77
2018-08-09T18:30:14.729Z,23.77
2018-08-09T18:35:14.646Z,23.63
2018-08-09T18:40:15.539Z,23.45
2018-08-09T18:45:13.077Z,23.25
2018-08-09T18:50:13.882Z,23.00
2018-08-09T18:55:12.722Z,22.89
2018-08-09T19:00:13.786Z,22.92
2018-08-09T19:05:11.294Z,22.81
2018-08-09T19:10:12.014Z,22.84
2018-08-09T19:15:10.433Z,22.77
2018-08-09T19:20:15.893Z,22.62
2018-08-09T19:25:13.787Z,22.55
2018-08-09T19:30:12.199Z,22.52
2018-08-09T19:35:11.566Z,22.53
2018-08-09T19:40:10.600Z,22.56
2018-08-09T19:45:10.132Z,22.50
2018-08-09T19:50:10.764Z,22.39
2018-08-09T19:55:10.263Z,22.31
2018-08-09T20:00:10.202Z,22.38
2018-08-09T20:05:08.907Z,22.41
2018-08-09T20:10:07.093Z,22.40
2018-08-09T20:15:07.161Z,22.29
2018-08-09T20:20:06.819Z,22.18
2018-08-09T20:25:05.346Z,21.85
2018-08-09T20:30:03.074Z,21.69
2018-08-09T20:35:00.645Z,21.62
2018-08-09T20:39:58.143Z,21.51
2018-08-09T20:44:55.704Z,21.24
2018-08-09T20:49:54.272Z,21.04
2018-08-09T20:54:51.747Z,20.90
2018-08-09T20:59:49.237Z,20.79
2018-08-09T21:04:46.706Z,20.78
2018-08-09T21:09:44.254Z,20.66
2018-08-09T21:14:41.734Z,20.62
2018-08-09T21:19:40.277Z,20.63
2018-08-09T21:24:37.769Z,20.57
2018-08-09T21:29:35.270Z,20.50
2018-08-09T21:34:32.803Z,20.49
2018-08-09T21:39:30.331Z,20.50
2018-08-09T21:44:27.810Z,20.45
2018-08-09T21:49:28.830Z,20.32
2018-08-09T21:54:26.485Z,20.25
2018-08-09T21:59:24.055Z,20.34
2018-08-09T22:04:21.560Z,20.35
2018-08-09T22:09:24.705Z,20.26
2018-08-09T22:14:27.845Z,20.24
2018-08-09T22:19:35.868Z,20.28
2018-08-09T22:24:33.459Z,20.23
2018-08-09T22:30:02.119Z,20.19
2018-08-09T22:34:59.640Z,20.18
2018-08-09T22:39:57.159Z,20.15
2018-08-09T22:44:54.707Z,20.09
2018-08-09T22:49:53.278Z,19.95
2018-08-09T22:54:50.802Z,19.81
2018-08-09T22:59:48.337Z,19.74
2018-08-09T23:04:45.824Z,19.64
2018-08-09T23:09:43.336Z,19.59
2018-08-09T23:14:40.837Z,19.47
2018-08-09T23:19:41.749Z,19.38
2018-08-09T23:24:39.283Z,19.11
2018-08-09T23:29:36.858Z,19.01
2018-08-09T23:34:34.439Z,18.87
2018-08-09T23:39:31.922Z,18.84
2018-08-09T23:44:29.419Z,18.80
2018-08-09T23:49:35.978Z,18.83
2018-08-09T23:54:35.417Z,18.60
2018-08-09T23:59:32.923Z,18.38
